Little Bay, New South Wales

4:30 AM AEST on July 08, 2015 (GMT +1000)
Matraville | | Change Station
CLOSE
Current Station
Personal Weather Station
Location: Sydney, NSW
Elevation: 89 ft
Nearby Weather Stations

Elev 89 ft 33.96 °S, 151.23 °E | Updated 4 seconds ago

Rain
Rain
49.1 °F
Feels Like 49 °F
N
0.7
Wind Variable Wind from South
Gusts 1.6 mph

Today
High -- | Low -- °F
--% Chance of Precip.
Yesterday
High -- | Low -- °F
Precip. -- in
7:00 AM 4:59 PM
Waning Gibbous, 62% visible
Pressure 30.30 in
Visibility 3.7 miles
Clouds Scattered Clouds 3100 ft
Windchill 49 °F
Dew Point 49 °F
Humidity 99%
Rainfall 0.05 in
Snow Depth Not available.
UV 0 out of 12
Pollen Not available.
Air Quality Not available.
Flu Activity Not available.
SPECI YSRI 071823Z AUTO 09002KT 6000 // SCT031 02/02 Q1026

More Conditions Fewer Conditions

Pressure 30.30 in
Visibility 3.7 miles
Clouds Scattered Clouds 3100 ft
Windchill 49 °F
Dew Point 49 °F
Humidity 99%
Rainfall 0.05 in
Snow Depth Not available.
UV 0 out of 12
Pollen Not available.
Air Quality Not available.
Flu Activity Not available.
SPECI YSRI 071823Z AUTO 09002KT 6000 // SCT031 02/02 Q1026

More Conditions Fewer Conditions

10-Day Weather Forecast

×

Almanac

Astronomy

Jul. 08, 2015 Rise Set
Actual Time
Civil Twilight
Nautical Twilight
Astronomical Twilight
Moon
Length of Visible Light
Length of Day
Tomorrow will be .
, % of the Moon is Illuminated

Today's Extremes

Country Highs Country Lows

Community

WunderPhotos

Upload Photos

1,835,866 photos uploaded!

WunderBlogs® & News

Nearby

Air Quality

  Air Quality AQ Index Pollutant
Not available.

Snow Depth

Station Depth Elevation

Earthquake Activity

City Distance Mag. Time & Date
Minimum magnitude displayed is 2.5.

Coastal Water Temperatures

Place Temperature

Stations

Nearby Weather Stations

Station Location Temp. Windchill Dew Point Humidity Wind Precip. Elev Updated Type